Time;durP1;ratioP1;P1;durP2;ratioP2;P2;SDS_P1;SDS_P2;PMS_P1;PMS_P2;Temp;Humidity;BMP_temperature;BMP_pressure;BME280_temperature;BME280_humidity;BME280_pressure;Samples;Min_cycle;Max_cycle;Signal;HPM_P1;HPM_P2
2023/08/07 00:00:09;;;;;;;14.18;3.85;;;;;;;13.95;100.00;101160.75;5047480;28;20550;-70
2023/08/07 00:02:34;;;;;;;11.07;3.13;;;;;;;13.88;100.00;101163.00;5047189;28;21177;-70
2023/08/07 00:05:00;;;;;;;9.55;3.67;;;;;;;13.93;100.00;101170.72;5046794;28;20099;-70
2023/08/07 00:07:26;;;;;;;19.92;4.38;;;;;;;13.92;100.00;101160.97;5047533;28;20056;-69
2023/08/07 00:09:51;;;;;;;10.85;4.88;;;;;;;13.98;100.00;101168.56;5046884;28;20033;-70
2023/08/07 00:12:17;;;;;;;19.88;4.80;;;;;;;13.97;100.00;101159.69;5047263;28;20542;-69
2023/08/07 00:14:42;;;;;;;13.75;4.70;;;;;;;13.90;100.00;101157.53;5043416;28;20037;-70
2023/08/07 00:17:08;;;;;;;12.55;4.78;;;;;;;13.87;100.00;101163.13;5048031;28;20464;-70
2023/08/07 00:19:34;;;;;;;18.73;4.63;;;;;;;13.86;100.00;101156.06;5047071;28;20051;-69
2023/08/07 00:21:59;;;;;;;13.70;4.30;;;;;;;13.83;100.00;101162.50;5047467;28;20040;-69
2023/08/07 00:24:25;;;;;;;9.45;3.35;;;;;;;13.87;100.00;101158.63;5047365;28;20041;-70
2023/08/07 00:26:51;;;;;;;16.38;3.65;;;;;;;13.90;100.00;101149.50;5047362;28;20853;-69
2023/08/07 00:29:16;;;;;;;7.85;3.90;;;;;;;13.85;100.00;101151.66;5042702;28;20033;-70
2023/08/07 00:31:42;;;;;;;10.90;4.10;;;;;;;13.88;100.00;101149.63;5045250;28;20570;-70
2023/08/07 00:34:09;;;;;;;11.77;3.92;;;;;;;13.81;100.00;101148.34;5046707;28;20807;-70
2023/08/07 00:36:35;;;;;;;5.07;3.53;;;;;;;13.77;100.00;101151.38;5049731;28;20037;-70
2023/08/07 00:39:03;;;;;;;15.65;4.43;;;;;;;13.84;100.00;101131.19;5044993;28;20039;-69
2023/08/07 00:41:29;;;;;;;8.35;3.58;;;;;;;13.80;100.00;101153.81;5046112;28;20041;-69
2023/08/07 00:43:55;;;;;;;13.88;3.92;;;;;;;13.67;100.00;101154.69;5048071;28;20715;-69
2023/08/07 00:46:21;;;;;;;7.40;3.22;;;;;;;13.70;100.00;101154.50;5046387;28;20147;-69
2023/08/07 00:48:47;;;;;;;6.70;2.72;;;;;;;13.73;100.00;101158.75;5056589;28;20996;-69
2023/08/07 00:51:13;;;;;;;6.78;2.50;;;;;;;13.73;100.00;101156.06;5048889;28;20044;-69
2023/08/07 00:53:39;;;;;;;11.27;2.95;;;;;;;13.75;100.00;101156.81;5047334;28;20064;-69
2023/08/07 00:56:05;;;;;;;5.28;2.00;;;;;;;13.69;100.00;101158.09;5079957;27;20791;-69
2023/08/07 00:58:32;;;;;;;8.40;4.15;;;;;;;13.68;100.00;101153.72;5048695;28;20037;-70
2023/08/07 01:00:58;;;;;;;4.63;2.30;;;;;;;13.72;100.00;101163.25;5046370;28;20494;-70
2023/08/07 01:03:24;;;;;;;6.78;2.03;;;;;;;13.70;100.00;101165.22;5041381;28;20166;-70
2023/08/07 01:05:50;;;;;;;5.18;2.28;;;;;;;13.73;100.00;101164.97;5047521;28;20117;-69
2023/08/07 01:08:16;;;;;;;7.68;1.90;;;;;;;13.68;100.00;101167.13;5079727;28;20033;-69
2023/08/07 01:10:51;;;;;;;7.13;4.68;;;;;;;13.62;100.00;101172.94;5047881;28;20867;-70
2023/08/07 01:13:55;;;;;;;6.03;2.30;;;;;;;13.68;100.00;101172.47;5077525;28;20037;-69
2023/08/07 01:17:00;;;;;;;5.78;2.10;;;;;;;13.70;100.00;101170.56;5025645;28;20062;-69
2023/08/07 01:19:28;;;;;;;11.98;2.53;;;;;;;13.72;100.00;101170.44;5025610;28;20593;-69
2023/08/07 01:22:10;;;;;;;5.72;2.35;;;;;;;13.65;100.00;101171.84;5025193;28;20033;-69
2023/08/07 01:24:40;;;;;;;10.73;2.97;;;;;;;13.71;100.00;101174.09;5024419;28;20124;-69
2023/08/07 01:27:28;;;;;;;9.88;2.58;;;;;;;13.70;100.00;101173.25;5024040;28;20050;-69
2023/08/07 01:30:03;;;;;;;10.38;2.92;;;;;;;13.66;100.00;101182.47;5039824;28;20052;-69
2023/08/07 01:32:33;;;;;;;16.00;4.68;;;;;;;13.64;100.00;101180.84;5019887;28;20045;-70
2023/08/07 01:35:01;;;;;;;15.15;3.13;;;;;;;13.65;100.00;101185.22;5024888;28;20045;-69
2023/08/07 01:37:31;;;;;;;10.50;5.57;;;;;;;13.60;100.00;101180.19;5024814;28;20038;-70
2023/08/07 01:40:00;;;;;;;13.05;3.45;;;;;;;13.68;100.00;101177.00;5024741;28;20125;-69
2023/08/07 01:42:27;;;;;;;12.60;4.10;;;;;;;13.65;100.00;101182.56;5007914;28;20668;-70
2023/08/07 01:44:52;;;;;;;18.90;4.60;;;;;;;13.62;100.00;101180.09;5025384;28;20053;-70
2023/08/07 01:47:18;;;;;;;16.05;3.65;;;;;;;13.64;100.00;101176.34;5025514;28;20073;-70
2023/08/07 01:49:44;;;;;;;20.80;3.88;;;;;;;13.66;100.00;101177.09;5025034;28;20064;-70
2023/08/07 01:52:11;;;;;;;22.70;4.30;;;;;;;13.62;100.00;101180.09;5038996;28;20127;-69
2023/08/07 01:54:36;;;;;;;10.20;4.20;;;;;;;13.57;100.00;101191.16;5046178;28;20043;-70
2023/08/07 01:57:02;;;;;;;14.52;4.07;;;;;;;13.59;100.00;101186.53;5046780;28;20119;-70
2023/08/07 01:59:28;;;;;;;11.48;3.60;;;;;;;13.60;100.00;101184.69;5047465;28;20021;-70
2023/08/07 02:01:53;;;;;;;16.30;4.15;;;;;;;13.62;100.00;101191.69;5044504;28;20479;-70
2023/08/07 02:04:18;;;;;;;16.63;3.55;;;;;;;13.57;100.00;101193.81;5045496;28;20057;-70
2023/08/07 02:06:44;;;;;;;14.98;4.75;;;;;;;13.59;100.00;101185.66;5048143;28;20041;-68
2023/08/07 02:09:11;;;;;;;28.75;4.45;;;;;;;13.57;100.00;101198.34;5051051;28;20091;-69
2023/08/07 02:11:37;;;;;;;20.20;4.70;;;;;;;13.55;100.00;101194.88;5042967;28;20514;-69
2023/08/07 02:14:02;;;;;;;16.67;4.80;;;;;;;13.56;100.00;101202.84;5041148;28;20033;-69
2023/08/07 02:16:28;;;;;;;18.45;4.80;;;;;;;13.56;100.00;101194.81;5050859;28;20041;-70
2023/08/07 02:18:53;;;;;;;20.40;4.82;;;;;;;13.65;100.00;101202.16;5050718;28;20076;-70
2023/08/07 02:21:19;;;;;;;18.13;4.60;;;;;;;13.61;100.00;101214.09;5079814;28;20048;-70
2023/08/07 02:23:45;;;;;;;20.45;4.75;;;;;;;13.51;100.00;101222.88;5047297;28;20100;-70
2023/08/07 02:26:10;;;;;;;20.40;5.53;;;;;;;13.54;100.00;101220.81;5046168;28;20038;-71
2023/08/07 02:28:36;;;;;;;20.50;5.35;;;;;;;13.55;100.00;101219.00;5044541;28;20452;-69
2023/08/07 02:31:01;;;;;;;28.08;6.32;;;;;;;13.51;100.00;101221.06;5053789;28;20928;-70
2023/08/07 02:33:30;;;;;;;21.45;6.05;;;;;;;13.54;100.00;101228.00;5052100;28;20577;-70
2023/08/07 02:35:56;;;;;;;20.35;6.05;;;;;;;13.50;100.00;101224.69;5084055;27;20044;-70
2023/08/07 02:38:21;;;;;;;18.50;5.90;;;;;;;13.58;100.00;101232.19;5043632;28;20866;-71
2023/08/07 02:40:47;;;;;;;19.58;6.10;;;;;;;13.51;100.00;101225.56;5054046;28;20067;-70
2023/08/07 02:43:12;;;;;;;29.98;5.90;;;;;;;13.54;100.00;101222.66;5053710;28;20426;-70
2023/08/07 02:45:38;;;;;;;22.40;5.30;;;;;;;13.49;100.00;101228.31;5049260;28;20795;-69
2023/08/07 02:48:04;;;;;;;20.27;4.90;;;;;;;13.47;100.00;101225.75;5050423;28;20745;-69
2023/08/07 02:50:32;;;;;;;21.63;5.13;;;;;;;13.45;100.00;101225.03;5042980;28;20040;-69
2023/08/07 02:52:59;;;;;;;19.90;5.25;;;;;;;13.40;100.00;101221.81;5064465;28;20038;-70
2023/08/07 02:55:24;;;;;;;21.27;5.25;;;;;;;13.52;100.00;101217.41;5048191;28;20040;-70
2023/08/07 02:57:50;;;;;;;22.67;5.90;;;;;;;13.57;100.00;101233.16;5042525;28;20029;-69
2023/08/07 03:00:15;;;;;;;21.63;5.65;;;;;;;13.48;100.00;101219.44;5047407;28;20040;-69
2023/08/07 03:02:41;;;;;;;18.80;5.32;;;;;;;13.52;100.00;101211.19;5043381;28;20033;-69
2023/08/07 03:05:07;;;;;;;19.45;5.07;;;;;;;13.48;100.00;101210.53;5048163;28;20072;-69
2023/08/07 03:07:32;;;;;;;17.67;5.97;;;;;;;13.47;100.00;101212.38;5054710;28;20120;-69
2023/08/07 03:09:58;;;;;;;24.58;7.78;;;;;;;13.48;100.00;101219.44;5049141;28;20784;-69
2023/08/07 03:12:23;;;;;;;16.23;5.03;;;;;;;13.53;100.00;101218.25;5047947;28;20528;-69
2023/08/07 03:14:49;;;;;;;15.65;5.03;;;;;;;13.54;100.00;101212.78;5062795;28;20045;-69
2023/08/07 03:17:14;;;;;;;24.10;6.45;;;;;;;13.56;100.00;101218.06;5079803;27;20033;-70
2023/08/07 03:19:42;;;;;;;23.55;6.35;;;;;;;13.60;100.00;101219.53;5046283;28;20029;-69
2023/08/07 03:22:08;;;;;;;25.60;8.13;;;;;;;13.63;100.00;101214.81;5048151;28;20104;-69
2023/08/07 03:24:33;;;;;;;23.45;6.95;;;;;;;13.58;100.00;101208.94;5048262;28;20044;-69
2023/08/07 03:26:59;;;;;;;24.25;5.95;;;;;;;13.55;100.00;101208.28;5081340;27;20029;-70
2023/08/07 03:29:25;;;;;;;19.65;7.20;;;;;;;13.65;100.00;101212.03;5059478;28;20747;-70
2023/08/07 03:31:51;;;;;;;18.92;7.25;;;;;;;13.55;100.00;101210.97;5051188;28;20585;-70
2023/08/07 03:34:17;;;;;;;23.75;7.35;;;;;;;13.55;100.00;101203.78;5042629;28;20033;-70
2023/08/07 03:36:43;;;;;;;22.83;7.43;;;;;;;13.56;100.00;101210.03;5048100;28;20120;-70
2023/08/07 03:39:10;;;;;;;26.50;6.05;;;;;;;13.55;100.00;101202.94;5056277;28;20041;-69
2023/08/07 03:41:35;;;;;;;17.83;5.85;;;;;;;13.50;100.00;101203.25;5046729;28;20052;-69
2023/08/07 03:44:01;;;;;;;17.35;5.93;;;;;;;13.50;100.00;101197.88;5052857;28;20037;-70
2023/08/07 03:46:27;;;;;;;21.48;5.93;;;;;;;13.57;100.00;101195.66;5046975;28;20152;-70
2023/08/07 03:48:53;;;;;;;16.65;5.50;;;;;;;13.55;100.00;101202.94;5047065;28;20048;-70
2023/08/07 03:51:19;;;;;;;20.92;6.25;;;;;;;13.58;100.00;101194.69;5031102;28;20033;-70
2023/08/07 03:53:49;;;;;;;23.00;5.97;;;;;;;13.64;100.00;101189.75;5078604;28;20029;-70
2023/08/07 03:56:14;;;;;;;19.67;5.57;;;;;;;13.62;100.00;101196.19;5060923;28;20029;-69
2023/08/07 03:58:40;;;;;;;21.85;5.70;;;;;;;13.56;100.00;101200.16;5046779;28;20111;-71
2023/08/07 04:01:06;;;;;;;23.90;6.22;;;;;;;13.55;100.00;101190.38;5048262;28;20057;-70
2023/08/07 04:03:32;;;;;;;13.68;5.50;;;;;;;13.53;100.00;101191.47;5075079;28;20052;-69
2023/08/07 04:06:00;;;;;;;25.73;5.90;;;;;;;13.58;100.00;101175.94;5048261;28;20037;-69
2023/08/07 04:08:26;;;;;;;14.35;5.28;;;;;;;13.61;100.00;101191.81;5043548;28;20082;-70
2023/08/07 04:11:03;;;;;;;24.55;6.00;;;;;;;13.57;100.00;101183.13;5046966;28;20039;-70
2023/08/07 04:13:30;;;;;;;17.98;4.90;;;;;;;13.54;100.00;101185.13;5065474;28;20052;-70
2023/08/07 04:15:56;;;;;;;16.35;5.28;;;;;;;13.53;100.00;101186.97;5063158;28;20040;-70
2023/08/07 04:18:22;;;;;;;17.15;5.68;;;;;;;13.53;100.00;101184.28;5048094;28;20041;-69
2023/08/07 04:20:55;;;;;;;19.45;5.78;;;;;;;13.55;100.00;101190.38;5053054;28;20026;-70
2023/08/07 04:23:22;;;;;;;20.48;5.68;;;;;;;13.61;100.00;101186.44;5058956;28;20030;-70
2023/08/07 04:25:48;;;;;;;20.25;5.57;;;;;;;13.54;100.00;101194.03;5046646;28;20092;-69
2023/08/07 04:28:14;;;;;;;14.82;5.22;;;;;;;13.52;100.00;101206.69;5024831;28;20091;-69
2023/08/07 04:30:41;;;;;;;15.38;5.20;;;;;;;13.49;100.00;101209.56;5041140;28;20227;-70
2023/08/07 04:33:07;;;;;;;22.42;5.80;;;;;;;13.58;100.00;101202.72;5043279;28;20037;-70
2023/08/07 04:35:32;;;;;;;17.75;6.63;;;;;;;13.55;100.00;101202.94;5045933;28;20037;-69
2023/08/07 04:37:58;;;;;;;10.43;5.45;;;;;;;13.60;100.00;101209.66;5046553;28;20032;-69
2023/08/07 04:40:23;;;;;;;15.68;5.03;;;;;;;13.59;100.00;101210.66;5047117;28;20041;-69
2023/08/07 04:42:49;;;;;;;20.10;5.40;;;;;;;13.58;100.00;101206.25;5045500;28;20041;-70
2023/08/07 04:45:15;;;;;;;18.33;5.10;;;;;;;13.54;100.00;101214.63;5050090;28;20124;-69
2023/08/07 04:47:41;;;;;;;15.05;4.40;;;;;;;13.62;100.00;101221.16;5044830;28;20124;-70
2023/08/07 04:50:08;;;;;;;13.52;4.57;;;;;;;13.63;100.00;101222.88;5052954;28;20068;-69
2023/08/07 04:52:34;;;;;;;12.50;4.10;;;;;;;13.67;100.00;101218.16;5039827;28;20139;-69
2023/08/07 04:54:59;;;;;;;14.57;4.25;;;;;;;13.70;100.00;101223.28;5039130;28;20314;-69
2023/08/07 04:57:25;;;;;;;12.43;4.05;;;;;;;13.70;100.00;101213.44;5046968;28;20029;-70
2023/08/07 04:59:52;;;;;;;11.60;6.25;;;;;;;13.68;100.00;101220.72;5048439;28;20766;-69
2023/08/07 05:02:17;;;;;;;10.38;4.20;;;;;;;13.81;100.00;101215.38;5043782;28;20033;-69
2023/08/07 05:04:43;;;;;;;13.63;5.00;;;;;;;13.84;100.00;101220.50;5045460;28;20045;-69
2023/08/07 05:07:09;;;;;;;13.40;4.55;;;;;;;13.86;100.00;101223.09;5048250;28;20533;-69
2023/08/07 05:09:35;;;;;;;11.85;4.50;;;;;;;13.79;100.00;101217.28;5044587;28;20566;-69
2023/08/07 05:12:02;;;;;;;9.45;3.33;;;;;;;13.81;100.00;101223.41;5044953;28;20293;-70
2023/08/07 05:14:29;;;;;;;13.68;4.43;;;;;;;13.83;100.00;101234.00;5048793;28;20048;-70
2023/08/07 05:16:55;;;;;;;10.90;3.67;;;;;;;13.86;100.00;101233.81;5044968;28;20107;-70
2023/08/07 05:19:20;;;;;;;11.57;4.05;;;;;;;13.83;100.00;101250.09;5044224;28;20783;-69
2023/08/07 05:21:49;;;;;;;9.52;4.40;;;;;;;13.87;100.00;101257.81;5039489;28;20044;-70
2023/08/07 05:24:15;;;;;;;11.55;3.80;;;;;;;13.87;100.00;101251.59;5036473;28;20522;-70
2023/08/07 05:26:41;;;;;;;10.80;5.13;;;;;;;13.80;100.00;101264.56;5054607;28;20064;-70
2023/08/07 05:29:07;;;;;;;16.75;5.45;;;;;;;13.83;100.00;101260.81;5074831;28;20041;-70
2023/08/07 05:31:33;;;;;;;11.38;4.85;;;;;;;13.90;100.00;101270.13;5043056;28;20041;-69
2023/08/07 05:33:59;;;;;;;13.73;5.00;;;;;;;13.80;100.00;101264.56;5040377;28;20037;-69
2023/08/07 05:36:25;;;;;;;16.00;5.68;;;;;;;13.89;100.00;101277.31;5077018;28;20041;-70
2023/08/07 05:38:50;;;;;;;22.35;5.97;;;;;;;13.83;100.00;101284.94;5045843;28;20068;-70
2023/08/07 05:41:16;;;;;;;16.50;5.47;;;;;;;13.85;100.00;101277.66;5043326;28;20033;-70
2023/08/07 05:43:43;;;;;;;17.77;5.90;;;;;;;13.88;100.00;101280.13;5044053;28;20044;-70
2023/08/07 05:46:09;;;;;;;22.58;6.55;;;;;;;13.94;100.00;101285.03;5043037;28;20029;-69
2023/08/07 05:48:35;;;;;;;19.58;5.80;;;;;;;13.97;100.00;101284.84;5037884;28;20116;-70
2023/08/07 05:51:01;;;;;;;15.77;5.40;;;;;;;13.97;100.00;101285.69;5044799;28;20037;-70
2023/08/07 05:53:26;;;;;;;23.52;6.57;;;;;;;14.03;100.00;101291.59;5037694;28;20033;-70
2023/08/07 05:55:52;;;;;;;23.48;7.63;;;;;;;13.95;100.00;101292.13;5040719;28;20582;-70
2023/08/07 05:58:18;;;;;;;19.52;5.55;;;;;;;13.98;100.00;101292.75;5043593;28;20037;-69
2023/08/07 06:00:44;;;;;;;18.88;6.47;;;;;;;13.90;100.00;101292.44;5039623;28;20068;-70
2023/08/07 06:03:10;;;;;;;19.67;6.28;;;;;;;13.96;100.00;101297.41;5040611;28;20041;-70
2023/08/07 06:05:36;;;;;;;23.92;6.50;;;;;;;13.98;100.00;101291.91;5035948;28;20051;-69
2023/08/07 06:08:01;;;;;;;18.63;6.90;;;;;;;14.00;100.00;101300.69;5040446;28;20116;-70
2023/08/07 06:10:27;;;;;;;21.75;5.93;;;;;;;14.06;100.00;101302.97;5044710;28;20131;-70
2023/08/07 06:12:53;;;;;;;20.25;7.20;;;;;;;14.12;100.00;101299.84;5044663;28;20036;-69
2023/08/07 06:15:19;;;;;;;23.05;6.30;;;;;;;14.12;100.00;101307.91;5039219;28;20044;-70
2023/08/07 06:17:44;;;;;;;24.10;7.40;;;;;;;14.10;100.00;101309.81;5038577;28;20870;-70
2023/08/07 06:20:11;;;;;;;24.63;6.90;;;;;;;14.16;100.00;101311.22;5039998;28;20029;-70
2023/08/07 06:22:37;;;;;;;19.40;5.95;;;;;;;14.17;100.00;101310.25;5044509;28;20144;-69
2023/08/07 06:25:05;;;;;;;22.98;7.50;;;;;;;14.17;100.00;101310.25;5044764;28;20033;-70
2023/08/07 06:27:31;;;;;;;15.43;6.60;;;;;;;14.21;100.00;101319.81;5045800;28;21456;-70
2023/08/07 06:29:57;;;;;;;27.52;6.28;;;;;;;14.33;100.00;101313.56;5043993;28;20041;-70
2023/08/07 06:32:24;;;;;;;35.70;6.50;;;;;;;14.39;100.00;101321.16;5043641;28;20095;-70
2023/08/07 06:34:50;;;;;;;19.27;6.35;;;;;;;14.44;100.00;101315.47;5060017;28;20072;-70
2023/08/07 06:37:15;;;;;;;18.13;5.50;;;;;;;14.38;100.00;101308.72;5034599;28;20034;-69
2023/08/07 06:39:41;;;;;;;18.52;6.13;;;;;;;14.54;100.00;101315.69;5045554;28;20041;-70
2023/08/07 06:42:07;;;;;;;20.60;6.72;;;;;;;14.49;100.00;101316.00;5046588;28;20032;-69
2023/08/07 06:44:34;;;;;;;20.50;6.45;;;;;;;14.50;100.00;101321.25;5044396;28;20032;-70
2023/08/07 06:47:00;;;;;;;21.65;6.32;;;;;;;14.52;100.00;101326.53;5044803;28;20049;-71
2023/08/07 06:49:25;;;;;;;22.90;6.78;;;;;;;14.51;100.00;101324.84;5052100;28;20103;-70
2023/08/07 06:51:51;;;;;;;24.90;7.40;;;;;;;14.43;100.00;101324.47;5046215;28;20858;-69
2023/08/07 06:54:16;;;;;;;28.95;7.57;;;;;;;14.48;100.00;101328.56;5045945;28;20846;-70
2023/08/07 06:56:43;;;;;;;18.20;6.93;;;;;;;14.47;100.00;101328.66;5049159;28;20442;-70
2023/08/07 06:59:09;;;;;;;18.83;6.00;;;;;;;14.49;100.00;101321.38;5053504;28;20045;-69
2023/08/07 07:01:35;;;;;;;15.82;6.50;;;;;;;14.53;100.00;101322.03;5042105;28;20032;-70
2023/08/07 07:04:00;;;;;;;26.55;6.72;;;;;;;14.69;100.00;101328.00;5047593;28;20514;-69
2023/08/07 07:06:26;;;;;;;23.38;6.75;;;;;;;14.90;100.00;101336.28;5049479;28;20033;-70
2023/08/07 07:08:55;;;;;;;16.42;6.43;;;;;;;14.97;100.00;101338.44;5044021;28;20503;-69
2023/08/07 07:11:23;;;;;;;23.63;8.25;;;;;;;15.21;100.00;101333.06;5050065;28;20041;-70
2023/08/07 07:13:50;;;;;;;25.27;7.97;;;;;;;15.46;100.00;101321.31;5061145;28;20340;-70
2023/08/07 07:16:17;;;;;;;26.17;6.55;;;;;;;15.75;100.00;101310.16;5058730;28;20048;-70
2023/08/07 07:18:43;;;;;;;19.25;6.45;;;;;;;15.96;100.00;101297.72;5043016;28;20136;-70
2023/08/07 07:21:08;;;;;;;18.45;6.38;;;;;;;16.11;100.00;101301.03;5048276;28;20399;-69
2023/08/07 07:23:34;;;;;;;19.92;5.95;;;;;;;16.38;100.00;101299.84;5048111;28;20113;-70
2023/08/07 07:26:00;;;;;;;27.08;6.03;;;;;;;16.39;100.00;101293.47;5051053;28;20033;-69
2023/08/07 07:28:25;;;;;;;23.50;6.43;;;;;;;16.26;100.00;101301.66;5048209;28;20053;-70
2023/08/07 07:30:51;;;;;;;19.95;5.97;;;;;;;16.21;100.00;101303.84;5048437;28;20792;-70
2023/08/07 07:33:17;;;;;;;20.15;6.00;;;;;;;16.25;100.00;101302.63;5048402;28;20048;-70
2023/08/07 07:35:45;;;;;;;19.63;5.20;;;;;;;16.43;100.00;101306.56;5050043;28;20128;-70
2023/08/07 07:38:11;;;;;;;18.88;5.40;;;;;;;16.38;100.00;101311.44;5043894;28;20038;-70
2023/08/07 07:40:37;;;;;;;22.95;5.93;;;;;;;16.45;100.00;101318.03;5063597;28;20040;-70
2023/08/07 07:43:03;;;;;;;23.35;6.10;;;;;;;16.46;100.00;101326.97;5061894;28;20041;-70
2023/08/07 07:45:29;;;;;;;17.27;5.43;;;;;;;16.50;100.00;101320.38;5048781;28;20076;-70
2023/08/07 07:47:55;;;;;;;17.40;5.50;;;;;;;16.47;100.00;101326.03;5046563;28;20048;-69
2023/08/07 07:50:21;;;;;;;15.68;4.80;;;;;;;16.61;100.00;101323.03;5043411;28;20032;-69
2023/08/07 07:52:46;;;;;;;14.77;5.45;;;;;;;16.79;100.00;101326.13;5042439;28;20758;-69
2023/08/07 07:55:13;;;;;;;21.50;5.93;;;;;;;16.65;100.00;101329.91;5044232;28;20060;-70
2023/08/07 07:57:40;;;;;;;16.40;5.63;;;;;;;16.81;100.00;101330.38;5046624;28;20033;-69
2023/08/07 08:00:10;;;;;;;26.38;6.25;;;;;;;17.17;100.00;101333.75;5045676;28;20148;-70
2023/08/07 08:02:37;;;;;;;20.73;6.45;;;;;;;17.03;100.00;101334.03;5046552;28;20191;-70
2023/08/07 08:05:03;;;;;;;25.38;5.68;;;;;;;16.99;100.00;101338.81;5045104;28;20704;-70
2023/08/07 08:07:29;;;;;;;12.80;4.78;;;;;;;17.48;100.00;101341.94;5039503;28;20839;-69
2023/08/07 08:09:55;;;;;;;14.77;4.88;;;;;;;17.86;100.00;101341.38;5027020;28;20478;-71
2023/08/07 08:12:22;;;;;;;18.35;5.45;;;;;;;18.30;100.00;101324.03;5044341;28;20052;-70
2023/08/07 08:14:47;;;;;;;14.75;4.85;;;;;;;18.83;100.00;101325.66;5033612;28;20041;-70
2023/08/07 08:17:13;;;;;;;24.73;5.68;;;;;;;18.81;100.00;101327.63;5046073;28;20037;-70
2023/08/07 08:19:39;;;;;;;16.35;5.15;;;;;;;18.43;100.00;101337.31;5048162;28;20042;-70
2023/08/07 08:22:05;;;;;;;17.35;5.10;;;;;;;18.17;100.00;101334.19;5048631;28;20029;-71
2023/08/07 08:24:31;;;;;;;19.67;5.18;;;;;;;17.53;100.00;101342.41;5053533;28;20033;-70
2023/08/07 08:26:57;;;;;;;21.90;4.78;;;;;;;16.79;100.00;101367.38;5048421;28;20139;-69
2023/08/07 08:29:23;;;;;;;13.15;5.03;;;;;;;16.53;100.00;101380.22;5048549;28;20041;-71
2023/08/07 08:31:48;;;;;;;14.75;4.57;;;;;;;15.66;100.00;101383.47;5062454;28;20550;-71
2023/08/07 08:34:15;;;;;;;19.80;5.18;;;;;;;15.58;100.00;101384.03;5046329;28;20833;-71
2023/08/07 08:36:41;;;;;;;13.70;4.53;;;;;;;15.68;100.00;101394.97;5057650;28;20033;-70
2023/08/07 08:39:06;;;;;;;14.02;4.30;;;;;;;15.82;100.00;101388.56;5045671;28;20614;-70
2023/08/07 08:41:35;;;;;;;14.82;4.90;;;;;;;16.13;100.00;101390.59;5043921;28;20040;-70
2023/08/07 08:44:03;;;;;;;18.30;5.53;;;;;;;16.18;100.00;101383.00;5039446;28;20037;-70
2023/08/07 08:46:30;;;;;;;17.00;5.45;;;;;;;16.50;100.00;101385.84;5044800;28;20043;-72
2023/08/07 08:48:57;;;;;;;17.75;5.38;;;;;;;16.65;100.00;101389.13;5024802;28;21053;-70
2023/08/07 08:51:24;;;;;;;15.45;4.97;;;;;;;16.96;100.00;101392.94;5036434;28;20110;-70
2023/08/07 08:53:53;;;;;;;12.02;5.30;;;;;;;16.87;100.00;101385.63;5045050;28;20029;-71
2023/08/07 08:56:22;;;;;;;15.35;5.35;;;;;;;17.03;100.00;101388.78;5043897;28;20041;-71
2023/08/07 08:58:49;;;;;;;22.95;4.93;;;;;;;17.31;100.00;101379.25;5044702;28;21350;-70
2023/08/07 09:01:17;;;;;;;16.70;5.07;;;;;;;17.41;100.00;101375.78;5052112;28;20037;-70
2023/08/07 09:03:45;;;;;;;17.45;5.18;;;;;;;17.56;100.00;101388.84;5045691;28;20330;-70
2023/08/07 09:06:13;;;;;;;14.40;5.22;;;;;;;17.82;100.00;101384.00;5045726;28;20040;-70
2023/08/07 09:08:42;;;;;;;21.38;5.10;;;;;;;17.43;100.00;101379.22;5050627;28;20041;-71
2023/08/07 09:11:08;;;;;;;20.15;5.13;;;;;;;17.48;100.00;101383.25;5045349;28;20044;-70
2023/08/07 09:13:36;;;;;;;13.40;4.20;;;;;;;17.66;100.00;101390.75;5043741;28;20226;-70
2023/08/07 09:16:03;;;;;;;15.25;4.32;;;;;;;17.57;100.00;101384.28;5041255;28;20170;-69
2023/08/07 09:18:28;;;;;;;18.08;4.85;;;;;;;17.78;100.00;101395.16;5041158;28;20045;-71
2023/08/07 09:20:57;;;;;;;18.00;4.78;;;;;;;18.15;100.00;101398.25;5075935;28;20044;-71
2023/08/07 09:23:24;;;;;;;13.90;4.60;;;;;;;17.88;100.00;101396.09;5045308;28;20037;-70
2023/08/07 09:26:00;;;;;;;10.65;4.78;;;;;;;17.90;100.00;101390.56;5075677;28;20111;-72
2023/08/07 09:28:26;;;;;;;12.32;4.28;;;;;;;18.19;100.00;101405.09;5038998;28;20049;-71
2023/08/07 09:30:52;;;;;;;24.83;5.57;;;;;;;18.25;100.00;101406.41;5039169;28;20041;-70
2023/08/07 09:33:27;;;;;;;16.40;4.40;;;;;;;18.11;100.00;101413.00;5043082;28;20793;-71
2023/08/07 09:35:58;;;;;;;20.42;4.97;;;;;;;18.26;100.00;101408.13;5043019;28;20698;-71
2023/08/07 09:38:24;;;;;;;12.65;4.60;;;;;;;18.55;100.00;101401.03;5044661;28;20059;-71
2023/08/07 09:40:49;;;;;;;15.07;4.60;;;;;;;18.68;100.00;101398.16;5045699;28;20592;-70
2023/08/07 09:43:22;;;;;;;15.82;4.28;;;;;;;18.56;100.00;101402.72;5038028;28;21041;-70
2023/08/07 09:45:50;;;;;;;13.25;4.32;;;;;;;18.70;100.00;101406.97;5043357;28;20045;-70
2023/08/07 09:48:23;;;;;;;15.57;4.75;;;;;;;18.62;100.00;101396.81;5044159;28;20671;-70
2023/08/07 09:50:49;;;;;;;15.85;5.55;;;;;;;18.91;100.00;101397.94;5045164;28;20519;-70
2023/08/07 09:53:15;;;;;;;17.33;4.80;;;;;;;18.98;100.00;101405.38;5044302;28;20831;-71
2023/08/07 09:55:40;;;;;;;14.25;4.75;;;;;;;18.77;100.00;101404.56;5044736;28;20037;-70
2023/08/07 09:58:08;;;;;;;12.57;4.45;;;;;;;18.59;100.00;101410.59;5040601;28;20449;-71
2023/08/07 10:00:37;;;;;;;13.68;4.32;;;;;;;18.54;100.00;101425.50;5043454;28;20201;-71
2023/08/07 10:03:04;;;;;;;10.80;3.65;;;;;;;18.52;100.00;101419.34;5038945;28;20029;-70
2023/08/07 10:05:31;;;;;;;12.95;3.90;;;;;;;18.31;100.00;101417.53;5046021;28;20049;-71
2023/08/07 10:07:57;;;;;;;17.00;4.40;;;;;;;18.32;100.00;101427.38;5042664;28;20127;-71
2023/08/07 10:10:25;;;;;;;10.00;3.35;;;;;;;18.22;100.00;101421.03;5044095;28;20049;-72
2023/08/07 10:12:51;;;;;;;12.40;3.80;;;;;;;18.22;100.00;101418.31;5045831;28;20044;-70
2023/08/07 10:15:17;;;;;;;10.63;3.92;;;;;;;18.70;100.00;101416.91;5039374;28;20041;-70
2023/08/07 10:17:43;;;;;;;9.95;3.10;;;;;;;18.72;100.00;101421.19;5047807;28;20116;-70
2023/08/07 10:20:09;;;;;;;13.50;3.67;;;;;;;18.81;100.00;101425.78;5052109;28;20858;-71
2023/08/07 10:22:38;;;;;;;15.00;4.15;;;;;;;18.80;97.81;101425.91;5075471;28;20040;-71
2023/08/07 10:25:06;;;;;;;13.70;3.70;;;;;;;18.77;97.40;101421.63;5040989;28;20040;-71
2023/08/07 10:27:36;;;;;;;11.55;3.78;;;;;;;19.07;100.00;101427.97;5056471;28;20030;-71
2023/08/07 10:30:04;;;;;;;15.93;3.80;;;;;;;19.21;100.00;101424.03;5063310;28;20114;-70
2023/08/07 10:32:30;;;;;;;11.75;3.72;;;;;;;18.88;94.69;101426.09;5051172;28;20037;-71
2023/08/07 10:34:56;;;;;;;10.85;3.30;;;;;;;19.09;91.64;101424.16;5036938;28;20061;-71
2023/08/07 10:37:44;;;;;;;15.18;3.70;;;;;;;18.94;91.30;101430.09;5046417;28;20572;-71
2023/08/07 10:40:15;;;;;;;9.80;3.78;;;;;;;18.96;95.18;101441.63;5080090;28;20033;-71
2023/08/07 10:43:16;;;;;;;12.63;3.67;;;;;;;18.52;92.12;101439.09;5043476;28;20096;-71
2023/08/07 10:45:42;;;;;;;12.20;3.35;;;;;;;18.74;95.05;101446.22;5044898;28;20503;-71
2023/08/07 10:48:11;;;;;;;13.02;3.90;;;;;;;18.38;94.30;101451.13;5041730;28;20114;-70
2023/08/07 10:51:06;;;;;;;14.05;3.95;;;;;;;19.05;95.00;101446.22;5041964;28;20616;-71
2023/08/07 10:53:35;;;;;;;13.98;4.10;;;;;;;19.12;90.50;101452.75;5036461;28;20549;-71
2023/08/07 10:56:04;;;;;;;13.90;4.00;;;;;;;19.41;90.86;101444.72;5049292;28;20044;-71
2023/08/07 10:58:34;;;;;;;15.90;4.53;;;;;;;19.42;88.50;101444.56;5049398;28;20041;-71
2023/08/07 11:01:19;;;;;;;14.15;4.45;;;;;;;19.10;85.21;101454.75;5048772;28;20164;-70
2023/08/07 11:03:48;;;;;;;16.63;4.43;;;;;;;19.29;89.76;101456.66;5048065;28;20084;-71
2023/08/07 11:06:13;;;;;;;9.27;2.92;;;;;;;19.42;89.99;101451.84;5047795;28;20047;-72
2023/08/07 11:08:40;;;;;;;11.68;3.45;;;;;;;19.89;89.07;101455.63;5048493;28;20487;-71